createdAt,value
2023-11-24T00:00:34.517Z,14.27
2023-11-24T00:01:34.640Z,14.17
2023-11-24T00:02:34.522Z,14.17
2023-11-24T00:03:34.585Z,14.07
2023-11-24T00:04:34.510Z,14.07
2023-11-24T00:05:34.520Z,14.17
2023-11-24T00:06:34.550Z,14.07
2023-11-24T00:07:34.524Z,14.17
2023-11-24T00:08:34.516Z,14.17
2023-11-24T00:09:34.599Z,14.17
2023-11-24T00:10:34.519Z,14.17
2023-11-24T00:11:34.527Z,14.17
2023-11-24T00:12:34.538Z,14.07
2023-11-24T00:13:34.540Z,14.07
2023-11-24T00:14:34.551Z,14.17
2023-11-24T00:15:34.564Z,14.17
2023-11-24T00:16:34.546Z,14.07
2023-11-24T00:17:34.626Z,14.17
2023-11-24T00:18:34.591Z,14.07
2023-11-24T00:19:34.560Z,14.07
2023-11-24T00:20:34.553Z,14.17
2023-11-24T00:21:34.600Z,14.07
2023-11-24T00:22:34.540Z,14.07
2023-11-24T00:23:34.561Z,14.07
2023-11-24T00:24:34.579Z,14.07
2023-11-24T00:25:34.555Z,14.07
2023-11-24T00:26:34.545Z,14.07
2023-11-24T00:27:34.581Z,14.07
2023-11-24T00:28:34.557Z,14.07
2023-11-24T00:29:34.561Z,13.98
2023-11-24T00:30:34.603Z,14.07
2023-11-24T00:31:34.574Z,14.17
2023-11-24T00:32:34.586Z,14.07
2023-11-24T00:33:34.710Z,14.07
2023-11-24T00:34:34.609Z,13.98
2023-11-24T00:35:34.573Z,13.98
2023-11-24T00:36:34.576Z,14.07
2023-11-24T00:37:34.571Z,14.07
2023-11-24T00:38:34.567Z,14.07
2023-11-24T00:39:34.603Z,14.07
2023-11-24T00:40:34.568Z,14.07
2023-11-24T00:41:34.575Z,14.07
2023-11-24T00:42:34.614Z,14.07
2023-11-24T00:43:34.579Z,13.98
2023-11-24T00:44:34.577Z,14.47
2023-11-24T00:45:34.609Z,14.47
2023-11-24T00:46:34.638Z,13.98
2023-11-24T00:47:34.616Z,14.07
2023-11-24T00:48:34.608Z,14.47
2023-11-24T00:49:34.596Z,14.37
2023-11-24T00:50:34.585Z,14.47
2023-11-24T00:51:34.627Z,14.47
2023-11-24T00:52:34.640Z,14.47
2023-11-24T00:53:34.601Z,14.37
2023-11-24T00:54:34.667Z,14.27
2023-11-24T00:55:34.603Z,14.37
2023-11-24T00:56:34.598Z,14.37
2023-11-24T00:57:34.642Z,14.27
2023-11-24T00:58:34.609Z,14.37
2023-11-24T00:59:34.606Z,14.37
2023-11-24T01:00:34.616Z,14.47
2023-11-24T01:01:34.640Z,14.47
2023-11-24T01:02:34.766Z,14.37
2023-11-24T01:03:34.678Z,14.37
2023-11-24T01:04:34.662Z,14.47
2023-11-24T01:05:34.614Z,14.47
2023-11-24T01:06:34.607Z,14.37
2023-11-24T01:07:34.619Z,14.37
2023-11-24T01:08:34.610Z,14.47
2023-11-24T01:09:34.648Z,14.37
2023-11-24T01:10:34.617Z,14.47
2023-11-24T01:11:34.642Z,14.27
2023-11-24T01:12:34.637Z,14.27
2023-11-24T01:13:34.628Z,14.47
2023-11-24T01:14:34.629Z,14.37
2023-11-24T01:15:34.659Z,14.37
2023-11-24T01:16:34.626Z,14.37
2023-11-24T01:17:34.721Z,14.37
2023-11-24T01:18:34.661Z,14.37
2023-11-24T01:19:34.655Z,14.37
2023-11-24T01:20:34.635Z,14.37
2023-11-24T01:21:34.638Z,14.27
2023-11-24T01:22:34.636Z,14.37
2023-11-24T01:23:34.647Z,14.37
2023-11-24T01:24:34.683Z,14.37
2023-11-24T01:25:34.651Z,14.47
2023-11-24T01:26:34.642Z,14.37
2023-11-24T01:27:34.686Z,14.47
2023-11-24T01:28:34.644Z,14.27
2023-11-24T01:29:34.654Z,14.37
2023-11-24T01:30:34.742Z,14.37
2023-11-24T01:31:34.657Z,14.37
2023-11-24T01:32:34.658Z,14.27
2023-11-24T01:33:34.770Z,14.37
2023-11-24T01:34:34.923Z,14.47
2023-11-24T01:35:34.682Z,14.37
2023-11-24T01:36:34.742Z,14.47
2023-11-24T01:37:34.750Z,14.47
2023-11-24T01:38:34.666Z,14.27
2023-11-24T01:39:34.708Z,14.37
2023-11-24T01:40:34.665Z,14.47
2023-11-24T01:41:34.677Z,14.27
2023-11-24T01:42:34.708Z,14.37
2023-11-24T01:43:34.675Z,14.27
2023-11-24T01:44:34.670Z,14.37
2023-11-24T01:45:34.735Z,14.37
2023-11-24T01:46:34.723Z,14.37
2023-11-24T01:47:34.713Z,14.27
2023-11-24T01:48:34.703Z,14.37
2023-11-24T01:49:34.692Z,14.37
2023-11-24T01:50:34.710Z,14.27
2023-11-24T01:51:34.755Z,14.37
2023-11-24T01:52:34.686Z,14.27
2023-11-24T01:53:34.693Z,14.37
2023-11-24T01:54:34.757Z,14.37
2023-11-24T01:55:34.696Z,14.37
2023-11-24T01:56:34.690Z,14.37
2023-11-24T01:57:34.724Z,14.37
2023-11-24T01:58:34.693Z,14.37
2023-11-24T01:59:34.704Z,14.37
2023-11-24T02:00:34.713Z,14.37
2023-11-24T02:01:34.760Z,14.37
2023-11-24T02:02:34.777Z,14.37
2023-11-24T02:03:34.767Z,14.37
2023-11-24T02:04:34.707Z,14.27
2023-11-24T02:05:34.722Z,14.37
2023-11-24T02:06:34.744Z,14.37
2023-11-24T02:07:34.715Z,14.37
2023-11-24T02:08:34.709Z,14.37
2023-11-24T02:09:34.785Z,14.37
2023-11-24T02:10:34.720Z,14.27
2023-11-24T02:11:34.734Z,14.37
2023-11-24T02:12:34.741Z,14.37
2023-11-24T02:13:34.725Z,14.37
2023-11-24T02:14:34.721Z,14.27
2023-11-24T02:15:34.742Z,14.37
2023-11-24T02:16:34.756Z,14.37
2023-11-24T02:17:34.807Z,14.37
2023-11-24T02:18:34.778Z,14.37
2023-11-24T02:19:34.739Z,14.37
2023-11-24T02:20:34.740Z,14.37
2023-11-24T02:21:34.760Z,14.37
2023-11-24T02:22:34.756Z,14.27
2023-11-24T02:23:34.740Z,14.37
2023-11-24T02:24:34.761Z,14.47
2023-11-24T02:25:34.745Z,14.27
2023-11-24T02:26:34.765Z,14.37
2023-11-24T02:27:34.755Z,14.37
2023-11-24T02:28:34.739Z,14.27
2023-11-24T02:29:34.751Z,14.27
2023-11-24T02:30:34.765Z,14.27
2023-11-24T02:31:34.805Z,14.37
2023-11-24T02:32:34.758Z,14.37
2023-11-24T02:33:34.952Z,14.37
2023-11-24T02:34:34.770Z,14.37
2023-11-24T02:35:34.769Z,14.37
2023-11-24T02:36:34.761Z,14.47
2023-11-24T02:37:34.770Z,14.47
2023-11-24T02:38:34.782Z,14.37
2023-11-24T02:39:34.785Z,14.37
2023-11-24T02:40:34.770Z,14.37
2023-11-24T02:41:34.772Z,14.37
2023-11-24T02:42:34.787Z,14.37
2023-11-24T02:43:34.839Z,14.27
2023-11-24T02:44:34.781Z,14.37
2023-11-24T02:45:34.845Z,14.47
2023-11-24T02:46:34.773Z,14.37
2023-11-24T02:47:34.857Z,14.47
2023-11-24T02:48:34.922Z,14.37
2023-11-24T02:49:34.824Z,14.37
2023-11-24T02:50:34.783Z,14.27
2023-11-24T02:51:34.818Z,14.37
2023-11-24T02:52:34.785Z,14.37
2023-11-24T02:53:34.791Z,14.37
2023-11-24T02:54:34.982Z,14.37
2023-11-24T02:55:34.811Z,14.47
2023-11-24T02:56:34.798Z,14.37
2023-11-24T02:57:34.834Z,14.37
2023-11-24T02:58:34.811Z,14.37
2023-11-24T02:59:34.803Z,14.47
2023-11-24T03:00:34.827Z,14.47
2023-11-24T03:01:34.986Z,14.37
2023-11-24T03:02:34.907Z,14.37
2023-11-24T03:03:34.834Z,14.27
2023-11-24T03:04:34.840Z,14.37
2023-11-24T03:05:34.819Z,14.37
2023-11-24T03:06:34.887Z,14.27
2023-11-24T03:07:34.818Z,14.37
2023-11-24T03:08:34.815Z,14.27
2023-11-24T03:09:34.876Z,14.17
2023-11-24T03:10:34.838Z,14.56
2023-11-24T03:11:34.830Z,14.47
2023-11-24T03:12:34.894Z,14.47
2023-11-24T03:13:34.827Z,14.75
2023-11-24T03:14:34.817Z,14.56
2023-11-24T03:15:34.861Z,14.75
2023-11-24T03:16:34.848Z,14.65
2023-11-24T03:17:34.925Z,14.65
2023-11-24T03:18:34.925Z,14.65
2023-11-24T03:19:34.834Z,14.75
2023-11-24T03:20:34.835Z,14.65
2023-11-24T03:21:34.897Z,14.75
2023-11-24T03:22:34.831Z,14.65
2023-11-24T03:23:34.855Z,14.65
2023-11-24T03:24:34.859Z,14.65
2023-11-24T03:25:34.841Z,14.65
2023-11-24T03:26:34.861Z,14.75
2023-11-24T03:27:34.867Z,14.85
2023-11-24T03:28:34.839Z,14.85
2023-11-24T03:29:34.941Z,14.75
2023-11-24T03:30:34.876Z,14.85
2023-11-24T03:31:34.849Z,14.65
2023-11-24T03:32:34.860Z,14.75
2023-11-24T03:33:34.925Z,14.65
2023-11-24T03:34:34.996Z,14.95
2023-11-24T03:35:34.866Z,14.85
2023-11-24T03:36:34.876Z,14.95
2023-11-24T03:37:34.866Z,14.95
2023-11-24T03:38:34.860Z,14.85
2023-11-24T03:39:34.884Z,14.85
2023-11-24T03:40:34.858Z,14.85
2023-11-24T03:41:34.867Z,14.94
2023-11-24T03:42:34.951Z,14.95
2023-11-24T03:43:34.883Z,14.85
2023-11-24T03:44:34.875Z,14.85
2023-11-24T03:45:34.893Z,14.85
2023-11-24T03:46:34.893Z,15.05
2023-11-24T03:47:34.904Z,15.05
2023-11-24T03:48:34.902Z,14.95
2023-11-24T03:49:34.880Z,14.95
2023-11-24T03:50:34.877Z,15.05
2023-11-24T03:51:34.893Z,15.04
2023-11-24T03:52:34.880Z,15.05
2023-11-24T03:53:34.891Z,15.05
2023-11-24T03:54:34.891Z,14.95
2023-11-24T03:55:34.889Z,15.05
2023-11-24T03:56:34.883Z,14.85
2023-11-24T03:57:34.904Z,14.85
2023-11-24T03:58:34.915Z,15.05
2023-11-24T03:59:34.894Z,14.85
2023-11-24T04:00:35.076Z,15.05
2023-11-24T04:01:35.296Z,15.05
2023-11-24T04:02:34.912Z,15.04
2023-11-24T04:03:34.953Z,15.05
2023-11-24T04:04:34.975Z,14.84
2023-11-24T04:05:34.905Z,15.05
2023-11-24T04:06:34.962Z,14.95
2023-11-24T04:07:34.913Z,15.04
2023-11-24T04:08:34.929Z,14.75
2023-11-24T04:09:35.022Z,14.84
2023-11-24T04:10:34.905Z,15.05
2023-11-24T04:11:34.913Z,15.04
2023-11-24T04:12:34.941Z,14.95
2023-11-24T04:13:34.913Z,14.94
2023-11-24T04:14:34.938Z,15.05
2023-11-24T04:15:35.003Z,14.84
2023-11-24T04:16:35.092Z,14.95
2023-11-24T04:17:34.958Z,15.05
2023-11-24T04:18:34.954Z,15.04
2023-11-24T04:19:34.941Z,14.95
2023-11-24T04:20:34.928Z,14.94
2023-11-24T04:21:34.937Z,15.04
2023-11-24T04:22:34.931Z,14.94
2023-11-24T04:23:34.925Z,14.85
2023-11-24T04:24:34.987Z,14.85
2023-11-24T04:25:34.941Z,14.85
2023-11-24T04:26:34.955Z,14.75
2023-11-24T04:27:34.945Z,14.65
2023-11-24T04:28:34.938Z,14.65
2023-11-24T04:29:34.934Z,14.65
2023-11-24T04:30:34.981Z,14.75
2023-11-24T04:31:34.945Z,14.84
2023-11-24T04:32:34.991Z,14.75
2023-11-24T04:33:34.961Z,14.85
2023-11-24T04:34:35.079Z,14.65
2023-11-24T04:35:34.943Z,14.65
2023-11-24T04:36:34.990Z,14.65
2023-11-24T04:37:34.945Z,14.65
2023-11-24T04:38:34.960Z,14.65
2023-11-24T04:39:35.025Z,14.75
2023-11-24T04:40:34.957Z,14.65
2023-11-24T04:41:34.956Z,14.75
2023-11-24T04:42:34.981Z,14.75
2023-11-24T04:43:34.958Z,14.75
2023-11-24T04:44:34.968Z,14.65
2023-11-24T04:45:35.019Z,14.75
2023-11-24T04:46:35.102Z,14.65
2023-11-24T04:47:34.976Z,14.84
2023-11-24T04:48:34.981Z,14.85
2023-11-24T04:49:34.973Z,14.65
2023-11-24T04:50:34.975Z,14.85
2023-11-24T04:51:35.062Z,14.75
2023-11-24T04:52:34.974Z,14.75
2023-11-24T04:53:35.483Z,14.85
2023-11-24T04:54:34.998Z,14.65
2023-11-24T04:55:34.978Z,14.84
2023-11-24T04:56:34.997Z,14.65
2023-11-24T04:57:35.011Z,14.65
2023-11-24T04:58:34.986Z,14.75
2023-11-24T04:59:34.978Z,14.85
2023-11-24T05:00:35.007Z,14.65
2023-11-24T05:01:35.158Z,14.75
2023-11-24T05:02:35.065Z,14.65
2023-11-24T05:03:35.021Z,14.65
2023-11-24T05:04:35.118Z,14.65
2023-11-24T05:05:34.988Z,14.75
2023-11-24T05:06:35.031Z,14.65
2023-11-24T05:07:34.990Z,14.75
2023-11-24T05:08:34.999Z,14.75
2023-11-24T05:09:35.015Z,14.75
2023-11-24T05:10:35.003Z,14.65
2023-11-24T05:11:35.002Z,14.75
2023-11-24T05:12:35.024Z,14.75
2023-11-24T05:13:34.999Z,14.75
2023-11-24T05:14:35.008Z,14.75
2023-11-24T05:15:35.044Z,14.65
2023-11-24T05:16:35.082Z,14.75
2023-11-24T05:17:35.020Z,14.75
2023-11-24T05:18:35.073Z,14.65
2023-11-24T05:19:35.008Z,14.65
2023-11-24T05:20:35.017Z,14.95
2023-11-24T05:21:35.055Z,14.75
2023-11-24T05:22:35.066Z,14.65
2023-11-24T05:23:35.027Z,14.75
2023-11-24T05:24:35.056Z,14.65
2023-11-24T05:25:35.017Z,14.85
2023-11-24T05:26:35.025Z,14.75
2023-11-24T05:27:35.038Z,14.75
2023-11-24T05:28:35.046Z,14.65
2023-11-24T05:29:35.023Z,14.85
2023-11-24T05:30:35.081Z,14.85
2023-11-24T05:31:35.074Z,14.75
2023-11-24T05:32:35.043Z,14.85
2023-11-24T05:33:35.180Z,14.75
2023-11-24T05:34:35.062Z,14.75
2023-11-24T05:35:35.032Z,14.75
2023-11-24T05:36:35.070Z,14.85
2023-11-24T05:37:35.043Z,14.65
2023-11-24T05:38:35.048Z,14.75
2023-11-24T05:39:35.074Z,14.75
2023-11-24T05:40:35.047Z,14.75
2023-11-24T05:41:35.056Z,14.65
2023-11-24T05:42:35.075Z,14.65
2023-11-24T05:43:35.045Z,14.65
2023-11-24T05:44:35.052Z,14.65
2023-11-24T05:45:35.069Z,14.85
2023-11-24T05:46:35.157Z,14.75
2023-11-24T05:47:35.081Z,14.75
2023-11-24T05:48:35.085Z,14.85
2023-11-24T05:49:35.054Z,14.75
2023-11-24T05:50:35.084Z,14.85
2023-11-24T05:51:35.092Z,14.85
2023-11-24T05:52:35.077Z,14.65
2023-11-24T05:53:35.062Z,14.85
2023-11-24T05:54:35.099Z,14.85
2023-11-24T05:55:35.077Z,14.85
2023-11-24T05:56:35.072Z,14.75
2023-11-24T05:57:35.106Z,14.85
2023-11-24T05:58:35.077Z,14.95
2023-11-24T05:59:35.073Z,14.85
2023-11-24T06:00:35.127Z,14.95
2023-11-24T06:01:35.109Z,14.85
2023-11-24T06:02:35.082Z,15.05
2023-11-24T06:03:35.119Z,14.95
2023-11-24T06:04:35.199Z,15.05
2023-11-24T06:05:35.172Z,15.14
2023-11-24T06:06:35.128Z,15.05
2023-11-24T06:07:35.084Z,15.05
2023-11-24T06:08:35.089Z,14.75
2023-11-24T06:09:35.154Z,14.95
2023-11-24T06:10:35.099Z,14.75
2023-11-24T06:11:35.102Z,15.05
2023-11-24T06:12:35.108Z,14.95
2023-11-24T06:13:35.093Z,14.75
2023-11-24T06:14:35.099Z,14.95
2023-11-24T06:15:35.109Z,14.95
2023-11-24T06:16:35.159Z,15.05
2023-11-24T06:17:35.113Z,15.05
2023-11-24T06:18:35.126Z,15.14
2023-11-24T06:19:35.099Z,15.14
2023-11-24T06:20:35.108Z,15.05
2023-11-24T06:21:35.134Z,15.14
2023-11-24T06:22:35.136Z,15.05
2023-11-24T06:23:35.106Z,15.14
2023-11-24T06:24:35.144Z,15.14
2023-11-24T06:25:35.118Z,15.14
2023-11-24T06:26:35.125Z,15.14
2023-11-24T06:27:35.129Z,15.14
2023-11-24T06:28:35.126Z,15.14
2023-11-24T06:29:35.115Z,15.14
2023-11-24T06:30:35.189Z,15.14
2023-11-24T06:31:35.119Z,14.95
2023-11-24T06:32:35.147Z,14.95
2023-11-24T06:33:35.181Z,15.24
2023-11-24T06:34:35.154Z,15.14
2023-11-24T06:35:35.139Z,14.95
2023-11-24T06:36:36.104Z,15.05
2023-11-24T06:37:35.137Z,15.14
2023-11-24T06:38:35.172Z,15.05
2023-11-24T06:39:35.218Z,15.05
2023-11-24T06:40:35.143Z,14.85
2023-11-24T06:41:35.140Z,15.24
2023-11-24T06:42:35.153Z,14.95
2023-11-24T06:43:35.137Z,15.05
2023-11-24T06:44:35.146Z,14.95
2023-11-24T06:45:35.158Z,14.85
2023-11-24T06:46:35.240Z,15.05
2023-11-24T06:47:35.265Z,14.95
2023-11-24T06:48:35.177Z,15.14
2023-11-24T06:49:35.147Z,15.24
2023-11-24T06:50:35.167Z,15.24
2023-11-24T06:51:35.177Z,15.34
2023-11-24T06:52:35.161Z,15.24
2023-11-24T06:53:35.158Z,15.05
2023-11-24T06:54:35.261Z,15.24
2023-11-24T06:55:35.154Z,14.95
2023-11-24T06:56:35.177Z,15.14
2023-11-24T06:57:35.189Z,15.05
2023-11-24T06:58:35.173Z,15.05
2023-11-24T06:59:35.166Z,15.05
2023-11-24T07:00:35.229Z,15.05
2023-11-24T07:01:35.530Z,14.86
2023-11-24T07:02:36.837Z,14.95
2023-11-24T07:03:35.373Z,14.95
2023-11-24T07:04:35.251Z,14.86
2023-11-24T07:05:35.184Z,15.05
2023-11-24T07:06:35.224Z,14.95
2023-11-24T07:07:35.178Z,14.95
2023-11-24T07:08:35.184Z,14.86
2023-11-24T07:09:35.219Z,14.86
2023-11-24T07:10:35.296Z,14.95
2023-11-24T07:11:35.223Z,14.86
2023-11-24T07:12:35.222Z,14.86
2023-11-24T07:13:35.193Z,14.86
2023-11-24T07:14:35.208Z,14.86
2023-11-24T07:15:35.232Z,14.76
2023-11-24T07:16:35.270Z,14.86
2023-11-24T07:17:35.214Z,14.86
2023-11-24T07:18:35.306Z,14.95
2023-11-24T07:19:35.238Z,15.15
2023-11-24T07:20:35.227Z,15.34
2023-11-24T07:21:35.210Z,15.05
2023-11-24T07:22:35.213Z,14.86
2023-11-24T07:23:35.204Z,15.05
2023-11-24T07:24:35.230Z,15.15
2023-11-24T07:25:35.211Z,14.95
2023-11-24T07:26:35.239Z,15.15
2023-11-24T07:27:35.260Z,15.15
2023-11-24T07:28:35.222Z,15.15
2023-11-24T07:29:35.216Z,15.05
2023-11-24T07:30:35.250Z,15.15
2023-11-24T07:31:35.218Z,15.05
2023-11-24T07:32:35.245Z,15.15
2023-11-24T07:33:35.328Z,14.86
2023-11-24T07:34:35.384Z,15.05
2023-11-24T07:35:35.233Z,15.05
2023-11-24T07:36:35.266Z,14.95
2023-11-24T07:37:35.232Z,14.95
2023-11-24T07:38:35.252Z,14.95
2023-11-24T07:39:35.319Z,14.95
2023-11-24T07:40:35.243Z,15.15
2023-11-24T07:41:35.241Z,15.34
2023-11-24T07:42:35.308Z,15.44
2023-11-24T07:43:35.268Z,15.05
2023-11-24T07:44:35.251Z,15.05
2023-11-24T07:45:35.285Z,15.25
2023-11-24T07:46:35.375Z,15.25
2023-11-24T07:47:35.279Z,15.25
2023-11-24T07:48:35.320Z,15.34
2023-11-24T07:49:35.253Z,15.15
2023-11-24T07:50:35.262Z,15.25
2023-11-24T07:51:35.308Z,15.05
2023-11-24T07:52:35.269Z,14.86
2023-11-24T07:53:35.261Z,15.44
2023-11-24T07:54:35.290Z,15.25
2023-11-24T07:55:35.283Z,15.25
2023-11-24T07:56:35.278Z,15.34
2023-11-24T07:57:35.281Z,15.35
2023-11-24T07:58:35.312Z,15.06
2023-11-24T07:59:35.272Z,15.35
2023-11-24T08:00:35.308Z,15.16
2023-11-24T08:01:35.365Z,15.34
2023-11-24T08:02:35.347Z,15.34
2023-11-24T08:03:35.326Z,15.25
2023-11-24T08:04:35.329Z,15.06
2023-11-24T08:05:35.284Z,15.06
2023-11-24T08:06:35.311Z,15.05
2023-11-24T08:07:35.288Z,15.35
2023-11-24T08:08:35.304Z,15.35
2023-11-24T08:09:35.316Z,15.06
2023-11-24T08:10:35.301Z,15.06
2023-11-24T08:11:35.310Z,15.16
2023-11-24T08:12:35.324Z,14.96
2023-11-24T08:13:35.314Z,15.06
2023-11-24T08:14:35.340Z,15.06
2023-11-24T08:15:35.366Z,14.96
2023-11-24T08:16:35.354Z,14.96
2023-11-24T08:17:35.330Z,15.06
2023-11-24T08:18:35.374Z,14.96
2023-11-24T08:19:35.316Z,15.45
2023-11-24T08:20:35.319Z,15.35
2023-11-24T08:21:35.335Z,15.35
2023-11-24T08:22:35.325Z,15.25
2023-11-24T08:23:35.323Z,15.25
2023-11-24T08:24:35.365Z,14.96
2023-11-24T08:25:35.323Z,15.45
2023-11-24T08:26:35.418Z,15.25
2023-11-24T08:27:35.363Z,15.25
2023-11-24T08:28:35.338Z,15.25
2023-11-24T08:29:35.353Z,15.25
2023-11-24T08:30:35.379Z,15.16
2023-11-24T08:31:35.333Z,15.35
2023-11-24T08:32:35.441Z,15.35
2023-11-24T08:33:35.370Z,15.35
2023-11-24T08:34:35.376Z,15.25
2023-11-24T08:35:35.359Z,15.35
2023-11-24T08:36:35.349Z,15.25
2023-11-24T08:37:35.354Z,15.45
2023-11-24T08:38:35.348Z,15.45
2023-11-24T08:39:35.423Z,15.35
2023-11-24T08:40:35.350Z,15.35
2023-11-24T08:41:40.443Z,15.35
2023-11-24T08:42:35.378Z,15.35
2023-11-24T08:43:35.366Z,15.16
2023-11-24T08:44:37.567Z,15.16
2023-11-24T08:45:35.392Z,15.06
2023-11-24T08:46:35.640Z,15.64
2023-11-24T08:47:35.438Z,15.45
2023-11-24T08:48:35.387Z,15.55
2023-11-24T08:49:35.379Z,15.45
2023-11-24T08:50:35.373Z,15.35
2023-11-24T08:51:35.406Z,15.55
2023-11-24T08:52:35.379Z,15.45
2023-11-24T08:53:35.385Z,15.55
2023-11-24T08:54:35.408Z,15.55
2023-11-24T08:55:35.410Z,15.55
2023-11-24T08:56:35.397Z,15.74
2023-11-24T08:57:35.436Z,15.55
2023-11-24T08:58:35.389Z,15.55
2023-11-24T08:59:35.403Z,15.55
2023-11-24T09:00:35.464Z,15.64
2023-11-24T09:01:35.444Z,15.64
2023-11-24T09:02:35.611Z,15.55
2023-11-24T09:03:35.540Z,15.55
2023-11-24T09:04:35.501Z,15.45
2023-11-24T09:05:35.418Z,15.74
2023-11-24T09:06:35.420Z,15.55
2023-11-24T09:07:35.413Z,15.64
2023-11-24T09:08:35.409Z,15.94
2023-11-24T09:09:35.450Z,16.13
2023-11-24T09:10:35.414Z,15.84
2023-11-24T09:11:35.437Z,16.03
2023-11-24T09:12:35.429Z,15.94
2023-11-24T09:13:35.428Z,15.94
2023-11-24T09:14:35.440Z,15.64
2023-11-24T09:15:35.440Z,15.74
2023-11-24T09:16:35.525Z,15.84
2023-11-24T09:17:35.473Z,15.74
2023-11-24T09:18:35.497Z,15.84
2023-11-24T09:19:35.457Z,15.74
2023-11-24T09:20:35.435Z,16.03
2023-11-24T09:21:35.817Z,15.84
2023-11-24T09:22:35.440Z,15.94
2023-11-24T09:23:35.442Z,15.84
2023-11-24T09:24:35.537Z,16.03
2023-11-24T09:25:35.454Z,16.03
2023-11-24T09:26:35.448Z,16.02
2023-11-24T09:27:35.952Z,15.94
2023-11-24T09:28:35.464Z,16.42
2023-11-24T09:29:35.466Z,15.73
2023-11-24T09:30:35.578Z,15.94
2023-11-24T09:31:35.595Z,15.83
2023-11-24T09:32:35.508Z,15.74
2023-11-24T09:33:35.517Z,16.03
2023-11-24T09:34:35.561Z,15.83
2023-11-24T09:35:35.488Z,16.22
2023-11-24T09:36:35.492Z,16.12
2023-11-24T09:37:35.479Z,16.22
2023-11-24T09:38:35.466Z,16.22
2023-11-24T09:39:35.513Z,15.94
2023-11-24T09:40:35.476Z,16.03
2023-11-24T09:41:35.480Z,15.92
2023-11-24T09:42:35.549Z,15.92
2023-11-24T09:43:35.482Z,15.92
2023-11-24T09:44:35.478Z,16.22
2023-11-24T09:45:35.556Z,16.22
2023-11-24T09:46:46.267Z,16.22
2023-11-24T09:47:35.971Z,16.22
2023-11-24T09:48:35.538Z,16.12
2023-11-24T09:49:35.496Z,16.41
2023-11-24T09:50:35.518Z,16.31
2023-11-24T09:51:35.542Z,16.31
2023-11-24T09:52:35.518Z,16.31
2023-11-24T09:53:35.547Z,16.41
2023-11-24T09:54:35.502Z,16.41
2023-11-24T09:55:35.506Z,16.31
2023-11-24T09:56:35.505Z,16.51
2023-11-24T09:57:35.532Z,16.31
2023-11-24T09:58:35.506Z,16.71
2023-11-24T09:59:35.515Z,16.61
2023-11-24T10:00:35.510Z,16.51
2023-11-24T10:01:35.517Z,16.51
2023-11-24T10:02:35.551Z,16.80
2023-11-24T10:03:35.521Z,16.71
2023-11-24T10:04:35.671Z,16.80
2023-11-24T10:05:35.543Z,16.71
2023-11-24T10:06:35.540Z,16.71
2023-11-24T10:07:35.529Z,16.80
2023-11-24T10:08:35.524Z,16.71
2023-11-24T10:09:35.533Z,16.99
2023-11-24T10:10:35.530Z,16.90
2023-11-24T10:11:35.538Z,16.80
2023-11-24T10:12:35.531Z,16.90
2023-11-24T10:13:35.540Z,16.90
2023-11-24T10:14:35.539Z,16.80
2023-11-24T10:15:35.543Z,16.90
2023-11-24T10:16:35.560Z,16.80
2023-11-24T10:17:35.548Z,16.80
2023-11-24T10:18:35.554Z,16.80
2023-11-24T10:19:35.550Z,16.80
2023-11-24T10:20:35.546Z,16.71
2023-11-24T10:21:35.552Z,16.71
2023-11-24T10:22:35.573Z,16.80
2023-11-24T10:23:35.561Z,16.90
2023-11-24T10:24:35.558Z,16.90
2023-11-24T10:25:35.909Z,16.90
2023-11-24T10:26:35.555Z,16.90
2023-11-24T10:27:35.563Z,16.99
2023-11-24T10:28:35.562Z,16.90
2023-11-24T10:29:35.570Z,17.09
2023-11-24T10:30:35.574Z,17.09
2023-11-24T10:31:35.575Z,16.99
2023-11-24T10:32:35.606Z,17.29
2023-11-24T10:33:36.267Z,17.29
2023-11-24T10:34:35.661Z,17.19
2023-11-24T10:35:35.578Z,17.19
2023-11-24T10:36:35.576Z,17.09
2023-11-24T10:37:35.586Z,17.09
2023-11-24T10:38:35.604Z,17.19
2023-11-24T10:39:35.597Z,17.19
2023-11-24T10:40:35.582Z,17.29
2023-11-24T10:41:35.593Z,17.19
2023-11-24T10:42:35.601Z,16.99
2023-11-24T10:43:35.844Z,17.19
2023-11-24T10:44:35.591Z,17.29
2023-11-24T10:45:35.599Z,17.19
2023-11-24T10:46:35.670Z,17.38
2023-11-24T10:47:35.624Z,17.19
2023-11-24T10:48:35.596Z,17.19
2023-11-24T10:49:35.609Z,17.29
2023-11-24T10:50:35.601Z,17.19
2023-11-24T10:51:35.610Z,17.19
2023-11-24T10:52:35.606Z,17.29
2023-11-24T10:53:35.627Z,17.09
2023-11-24T10:54:35.643Z,17.29
2023-11-24T10:55:35.618Z,17.29
2023-11-24T10:56:35.612Z,17.29
2023-11-24T10:57:35.623Z,17.58
2023-11-24T10:58:35.617Z,17.58
2023-11-24T10:59:35.778Z,17.38
2023-11-24T11:00:35.634Z,17.48
2023-11-24T11:01:35.802Z,17.29
2023-11-24T11:02:35.653Z,17.38
2023-11-24T11:03:35.710Z,17.19
2023-11-24T11:04:35.631Z,17.38
2023-11-24T11:05:35.636Z,17.19
2023-11-24T11:06:35.636Z,17.38
2023-11-24T11:07:36.162Z,17.19
2023-11-24T11:08:35.819Z,17.29
2023-11-24T11:09:35.657Z,17.38
2023-11-24T11:10:35.684Z,17.09
2023-11-24T11:11:35.647Z,17.19
2023-11-24T11:12:35.643Z,17.30
2023-11-24T11:13:35.651Z,17.40
2023-11-24T11:14:35.662Z,17.19
2023-11-24T11:15:35.655Z,17.38
2023-11-24T11:16:35.694Z,17.20
2023-11-24T11:17:35.736Z,17.58
2023-11-24T11:18:35.684Z,17.30
2023-11-24T11:19:35.658Z,17.09
2023-11-24T11:20:35.661Z,17.40
2023-11-24T11:21:35.677Z,17.38
2023-11-24T11:22:35.661Z,17.20
2023-11-24T11:23:35.689Z,17.30
2023-11-24T11:24:35.661Z,17.30
2023-11-24T11:25:35.688Z,17.30
2023-11-24T11:26:35.690Z,17.30
2023-11-24T11:27:35.678Z,17.20
2023-11-24T11:28:35.917Z,17.40
2023-11-24T11:29:35.707Z,17.40
2023-11-24T11:30:35.681Z,17.20
2023-11-24T11:31:35.801Z,17.40
2023-11-24T11:32:35.693Z,17.30
2023-11-24T11:33:35.691Z,17.20
2023-11-24T11:34:35.685Z,17.20
2023-11-24T11:35:35.695Z,17.20
2023-11-24T11:36:35.687Z,17.20
2023-11-24T11:37:35.701Z,17.30
2023-11-24T11:38:35.693Z,17.10
2023-11-24T11:39:35.704Z,17.20
2023-11-24T11:40:35.697Z,17.20
2023-11-24T11:41:35.709Z,17.30
2023-11-24T11:42:35.724Z,17.20
2023-11-24T11:43:35.715Z,17.30
2023-11-24T11:44:35.938Z,17.40
2023-11-24T11:45:35.718Z,17.40
2023-11-24T11:46:35.787Z,17.40
2023-11-24T11:47:35.731Z,17.30
2023-11-24T11:48:35.716Z,17.10
2023-11-24T11:49:36.090Z,17.30
2023-11-24T11:50:35.720Z,17.40
2023-11-24T11:51:35.800Z,17.20
2023-11-24T11:52:35.854Z,17.30
2023-11-24T11:53:35.756Z,17.00
2023-11-24T11:54:35.724Z,17.10
2023-11-24T11:55:35.777Z,17.10
2023-11-24T11:56:35.730Z,17.20
2023-11-24T11:57:35.738Z,17.20
2023-11-24T11:58:35.857Z,17.20
2023-11-24T11:59:35.741Z,17.20
2023-11-24T12:00:35.739Z,17.30
2023-11-24T12:01:35.948Z,17.30
2023-11-24T12:02:35.799Z,17.20
2023-11-24T12:03:35.912Z,17.20
2023-11-24T12:04:35.776Z,17.20
2023-11-24T12:05:35.755Z,17.21
2023-11-24T12:06:35.769Z,17.20
2023-11-24T12:07:38.293Z,17.11
2023-11-24T12:08:35.753Z,17.00
2023-11-24T12:09:35.763Z,17.21
2023-11-24T12:10:35.758Z,17.10
2023-11-24T12:11:35.766Z,17.21
2023-11-24T12:12:35.770Z,17.21
2023-11-24T12:13:38.114Z,17.21
2023-11-24T12:14:35.790Z,17.10
2023-11-24T12:15:35.985Z,17.30
2023-11-24T12:16:35.891Z,17.21
2023-11-24T12:17:35.796Z,17.21
2023-11-24T12:18:35.775Z,17.50
2023-11-24T12:19:38.092Z,17.30
2023-11-24T12:20:35.786Z,17.40
2023-11-24T12:21:35.790Z,17.40
2023-11-24T12:22:35.784Z,17.30
2023-11-24T12:23:35.792Z,17.50
2023-11-24T12:24:35.790Z,17.30
2023-11-24T12:25:37.393Z,17.40
2023-11-24T12:26:35.792Z,17.40
2023-11-24T12:27:35.800Z,17.40
2023-11-24T12:28:35.802Z,17.40
2023-11-24T12:29:35.805Z,17.21
2023-11-24T12:30:35.825Z,17.40
2023-11-24T12:31:37.767Z,17.30
2023-11-24T12:32:35.835Z,17.30
2023-11-24T12:33:35.813Z,17.40
2023-11-24T12:34:35.813Z,17.50
2023-11-24T12:35:35.819Z,17.49
2023-11-24T12:36:35.814Z,17.30
2023-11-24T12:37:38.236Z,17.50
2023-11-24T12:38:35.818Z,17.40
2023-11-24T12:39:35.880Z,17.49
2023-11-24T12:40:35.839Z,17.60
2023-11-24T12:41:35.843Z,17.40
2023-11-24T12:42:35.829Z,17.40
2023-11-24T12:43:35.835Z,17.58
2023-11-24T12:44:35.832Z,17.40
2023-11-24T12:45:35.857Z,17.60
2023-11-24T12:46:35.909Z,17.60
2023-11-24T12:48:35.841Z,17.50
2023-11-24T12:49:35.863Z,17.40
2023-11-24T12:50:35.856Z,17.40
2023-11-24T12:51:35.849Z,17.58
2023-11-24T12:52:35.859Z,17.60
2023-11-24T12:53:35.856Z,17.50